sensor_id;sensor_type;location;lat;lon;timestamp;P1;durP1;ratioP1;P2;durP2;ratioP2
45402;SDS011;47427;51.976;5.326;2022-12-07T00:02:07;10.70;;;5.78;;
45402;SDS011;47427;51.976;5.326;2022-12-07T00:05:29;10.70;;;5.85;;
45402;SDS011;47427;51.976;5.326;2022-12-07T00:08:51;8.65;;;5.82;;
45402;SDS011;47427;51.976;5.326;2022-12-07T00:12:12;9.93;;;6.05;;
45402;SDS011;47427;51.976;5.326;2022-12-07T00:15:34;15.95;;;6.70;;
45402;SDS011;47427;51.976;5.326;2022-12-07T00:18:56;15.82;;;6.10;;
45402;SDS011;47427;51.976;5.326;2022-12-07T00:22:18;9.65;;;6.35;;
45402;SDS011;47427;51.976;5.326;2022-12-07T00:25:39;13.02;;;6.63;;
45402;SDS011;47427;51.976;5.326;2022-12-07T00:29:03;12.43;;;6.45;;
45402;SDS011;47427;51.976;5.326;2022-12-07T00:32:50;12.52;;;6.50;;
45402;SDS011;47427;51.976;5.326;2022-12-07T00:36:13;12.20;;;7.15;;
45402;SDS011;47427;51.976;5.326;2022-12-07T00:39:39;14.65;;;7.10;;
45402;SDS011;47427;51.976;5.326;2022-12-07T00:43:00;24.08;;;6.82;;
45402;SDS011;47427;51.976;5.326;2022-12-07T00:46:22;10.40;;;7.05;;
45402;SDS011;47427;51.976;5.326;2022-12-07T00:49:44;13.07;;;7.60;;
45402;SDS011;47427;51.976;5.326;2022-12-07T00:53:06;11.27;;;7.80;;
45402;SDS011;47427;51.976;5.326;2022-12-07T00:56:28;9.05;;;6.78;;
45402;SDS011;47427;51.976;5.326;2022-12-07T00:59:51;12.13;;;6.13;;
45402;SDS011;47427;51.976;5.326;2022-12-07T01:03:16;10.60;;;6.70;;
45402;SDS011;47427;51.976;5.326;2022-12-07T01:06:38;12.93;;;7.07;;
45402;SDS011;47427;51.976;5.326;2022-12-07T01:10:00;10.25;;;6.93;;
45402;SDS011;47427;51.976;5.326;2022-12-07T01:13:21;14.48;;;6.70;;
45402;SDS011;47427;51.976;5.326;2022-12-07T01:16:43;16.02;;;6.93;;
45402;SDS011;47427;51.976;5.326;2022-12-07T01:20:05;12.38;;;6.47;;
45402;SDS011;47427;51.976;5.326;2022-12-07T01:23:27;12.57;;;5.80;;
45402;SDS011;47427;51.976;5.326;2022-12-07T01:26:50;8.05;;;5.65;;
45402;SDS011;47427;51.976;5.326;2022-12-07T01:30:11;11.82;;;5.18;;
45402;SDS011;47427;51.976;5.326;2022-12-07T01:33:35;9.25;;;4.93;;
45402;SDS011;47427;51.976;5.326;2022-12-07T01:36:58;8.95;;;5.32;;
45402;SDS011;47427;51.976;5.326;2022-12-07T01:40:19;14.23;;;5.50;;
45402;SDS011;47427;51.976;5.326;2022-12-07T01:44:07;12.80;;;5.93;;
45402;SDS011;47427;51.976;5.326;2022-12-07T01:47:31;8.50;;;4.68;;
45402;SDS011;47427;51.976;5.326;2022-12-07T01:50:53;14.02;;;4.85;;
45402;SDS011;47427;51.976;5.326;2022-12-07T01:54:17;9.65;;;4.90;;
45402;SDS011;47427;51.976;5.326;2022-12-07T01:57:43;13.23;;;5.45;;
45402;SDS011;47427;51.976;5.326;2022-12-07T02:01:11;13.02;;;5.10;;
45402;SDS011;47427;51.976;5.326;2022-12-07T02:04:33;9.80;;;5.18;;
45402;SDS011;47427;51.976;5.326;2022-12-07T02:07:56;11.63;;;5.25;;
45402;SDS011;47427;51.976;5.326;2022-12-07T02:11:18;17.00;;;5.40;;
45402;SDS011;47427;51.976;5.326;2022-12-07T02:14:41;13.50;;;6.47;;
45402;SDS011;47427;51.976;5.326;2022-12-07T02:18:14;11.95;;;6.03;;
45402;SDS011;47427;51.976;5.326;2022-12-07T02:21:52;9.88;;;5.43;;
45402;SDS011;47427;51.976;5.326;2022-12-07T02:32:54;13.45;;;5.28;;
45402;SDS011;47427;51.976;5.326;2022-12-07T02:36:39;11.30;;;4.88;;
45402;SDS011;47427;51.976;5.326;2022-12-07T02:40:08;9.63;;;4.57;;
45402;SDS011;47427;51.976;5.326;2022-12-07T02:43:55;9.00;;;4.38;;
45402;SDS011;47427;51.976;5.326;2022-12-07T02:47:22;11.65;;;4.45;;
45402;SDS011;47427;51.976;5.326;2022-12-07T02:50:49;5.88;;;3.70;;
45402;SDS011;47427;51.976;5.326;2022-12-07T02:54:14;10.95;;;4.10;;
45402;SDS011;47427;51.976;5.326;2022-12-07T03:02:38;6.13;;;3.22;;
45402;SDS011;47427;51.976;5.326;2022-12-07T03:09:51;6.95;;;3.40;;
45402;SDS011;47427;51.976;5.326;2022-12-07T03:13:48;10.43;;;3.13;;
45402;SDS011;47427;51.976;5.326;2022-12-07T03:17:19;7.05;;;2.95;;
45402;SDS011;47427;51.976;5.326;2022-12-07T03:20:48;9.32;;;3.65;;
45402;SDS011;47427;51.976;5.326;2022-12-07T03:24:17;6.30;;;3.20;;
45402;SDS011;47427;51.976;5.326;2022-12-07T03:31:23;8.43;;;3.50;;
45402;SDS011;47427;51.976;5.326;2022-12-07T03:38:29;6.88;;;3.33;;
45402;SDS011;47427;51.976;5.326;2022-12-07T03:42:06;6.82;;;3.30;;
45402;SDS011;47427;51.976;5.326;2022-12-07T03:45:38;10.63;;;2.60;;
45402;SDS011;47427;51.976;5.326;2022-12-07T03:53:15;7.85;;;2.60;;
45402;SDS011;47427;51.976;5.326;2022-12-07T03:57:01;8.10;;;2.83;;
45402;SDS011;47427;51.976;5.326;2022-12-07T04:00:25;8.70;;;2.77;;
45402;SDS011;47427;51.976;5.326;2022-12-07T04:03:47;10.50;;;3.03;;
45402;SDS011;47427;51.976;5.326;2022-12-07T04:07:10;7.47;;;2.75;;
45402;SDS011;47427;51.976;5.326;2022-12-07T04:10:31;9.02;;;3.38;;
45402;SDS011;47427;51.976;5.326;2022-12-07T04:13:53;10.23;;;3.33;;
45402;SDS011;47427;51.976;5.326;2022-12-07T04:17:33;15.85;;;4.13;;
45402;SDS011;47427;51.976;5.326;2022-12-07T04:20:55;10.23;;;2.83;;
45402;SDS011;47427;51.976;5.326;2022-12-07T04:24:17;14.13;;;3.97;;
45402;SDS011;47427;51.976;5.326;2022-12-07T04:27:39;8.20;;;2.63;;
45402;SDS011;47427;51.976;5.326;2022-12-07T04:31:01;9.75;;;2.63;;
45402;SDS011;47427;51.976;5.326;2022-12-07T04:34:24;13.25;;;2.50;;
45402;SDS011;47427;51.976;5.326;2022-12-07T04:37:46;9.20;;;1.85;;
45402;SDS011;47427;51.976;5.326;2022-12-07T04:41:08;9.43;;;2.42;;
45402;SDS011;47427;51.976;5.326;2022-12-07T04:44:30;12.88;;;2.85;;
45402;SDS011;47427;51.976;5.326;2022-12-07T04:47:52;9.95;;;2.35;;
45402;SDS011;47427;51.976;5.326;2022-12-07T04:51:15;9.25;;;3.38;;
45402;SDS011;47427;51.976;5.326;2022-12-07T04:54:41;8.73;;;1.90;;
45402;SDS011;47427;51.976;5.326;2022-12-07T04:58:02;8.30;;;2.22;;
45402;SDS011;47427;51.976;5.326;2022-12-07T05:01:24;9.30;;;2.00;;
45402;SDS011;47427;51.976;5.326;2022-12-07T05:04:46;6.28;;;2.13;;
45402;SDS011;47427;51.976;5.326;2022-12-07T05:08:08;12.73;;;2.92;;
45402;SDS011;47427;51.976;5.326;2022-12-07T05:11:29;6.18;;;2.05;;
45402;SDS011;47427;51.976;5.326;2022-12-07T05:15:00;7.55;;;2.28;;
45402;SDS011;47427;51.976;5.326;2022-12-07T05:18:23;11.70;;;2.78;;
45402;SDS011;47427;51.976;5.326;2022-12-07T05:21:45;4.85;;;2.35;;
45402;SDS011;47427;51.976;5.326;2022-12-07T05:25:07;7.75;;;2.00;;
45402;SDS011;47427;51.976;5.326;2022-12-07T05:28:29;4.32;;;1.83;;
45402;SDS011;47427;51.976;5.326;2022-12-07T05:31:51;6.07;;;2.17;;
45402;SDS011;47427;51.976;5.326;2022-12-07T05:35:12;3.17;;;1.73;;
45402;SDS011;47427;51.976;5.326;2022-12-07T05:38:34;5.15;;;2.05;;
45402;SDS011;47427;51.976;5.326;2022-12-07T05:41:56;7.97;;;2.50;;
45402;SDS011;47427;51.976;5.326;2022-12-07T05:45:32;7.63;;;2.63;;
45402;SDS011;47427;51.976;5.326;2022-12-07T05:48:54;7.38;;;2.75;;
45402;SDS011;47427;51.976;5.326;2022-12-07T05:52:16;10.43;;;2.70;;
45402;SDS011;47427;51.976;5.326;2022-12-07T05:55:37;8.73;;;3.22;;
45402;SDS011;47427;51.976;5.326;2022-12-07T05:58:59;10.43;;;2.70;;
45402;SDS011;47427;51.976;5.326;2022-12-07T06:02:40;5.10;;;2.70;;
45402;SDS011;47427;51.976;5.326;2022-12-07T06:06:02;6.07;;;2.30;;
45402;SDS011;47427;51.976;5.326;2022-12-07T06:09:24;13.80;;;3.40;;
45402;SDS011;47427;51.976;5.326;2022-12-07T06:12:47;10.55;;;3.58;;
45402;SDS011;47427;51.976;5.326;2022-12-07T06:16:12;14.40;;;3.33;;
45402;SDS011;47427;51.976;5.326;2022-12-07T06:20:00;11.60;;;3.25;;
45402;SDS011;47427;51.976;5.326;2022-12-07T06:23:22;10.45;;;3.05;;
45402;SDS011;47427;51.976;5.326;2022-12-07T06:26:43;11.35;;;3.25;;
45402;SDS011;47427;51.976;5.326;2022-12-07T06:30:06;8.65;;;3.67;;
45402;SDS011;47427;51.976;5.326;2022-12-07T06:33:29;8.20;;;2.85;;
45402;SDS011;47427;51.976;5.326;2022-12-07T06:36:51;10.45;;;2.78;;
45402;SDS011;47427;51.976;5.326;2022-12-07T06:40:33;9.20;;;2.60;;
45402;SDS011;47427;51.976;5.326;2022-12-07T06:43:55;10.15;;;2.67;;
45402;SDS011;47427;51.976;5.326;2022-12-07T06:47:16;9.60;;;3.03;;
45402;SDS011;47427;51.976;5.326;2022-12-07T06:50:38;8.52;;;2.88;;
45402;SDS011;47427;51.976;5.326;2022-12-07T06:54:00;10.07;;;3.30;;
45402;SDS011;47427;51.976;5.326;2022-12-07T06:57:21;8.32;;;2.35;;
45402;SDS011;47427;51.976;5.326;2022-12-07T07:00:43;7.22;;;2.28;;
45402;SDS011;47427;51.976;5.326;2022-12-07T07:04:06;6.60;;;2.47;;
45402;SDS011;47427;51.976;5.326;2022-12-07T07:07:27;5.53;;;2.10;;
45402;SDS011;47427;51.976;5.326;2022-12-07T07:10:49;9.07;;;3.53;;
45402;SDS011;47427;51.976;5.326;2022-12-07T07:14:11;10.63;;;2.97;;
45402;SDS011;47427;51.976;5.326;2022-12-07T07:17:33;8.05;;;2.15;;
45402;SDS011;47427;51.976;5.326;2022-12-07T07:20:54;7.63;;;2.22;;
45402;SDS011;47427;51.976;5.326;2022-12-07T07:24:16;10.93;;;2.78;;
45402;SDS011;47427;51.976;5.326;2022-12-07T07:27:38;11.00;;;3.05;;
45402;SDS011;47427;51.976;5.326;2022-12-07T07:30:59;11.55;;;2.53;;
45402;SDS011;47427;51.976;5.326;2022-12-07T07:34:21;6.30;;;2.50;;
45402;SDS011;47427;51.976;5.326;2022-12-07T07:37:43;12.32;;;2.92;;
45402;SDS011;47427;51.976;5.326;2022-12-07T07:41:04;11.65;;;3.50;;
45402;SDS011;47427;51.976;5.326;2022-12-07T07:44:26;10.73;;;3.53;;
45402;SDS011;47427;51.976;5.326;2022-12-07T07:47:48;8.65;;;3.33;;
45402;SDS011;47427;51.976;5.326;2022-12-07T07:51:10;11.68;;;3.50;;
45402;SDS011;47427;51.976;5.326;2022-12-07T07:54:31;10.38;;;2.92;;
45402;SDS011;47427;51.976;5.326;2022-12-07T07:58:13;11.25;;;3.85;;
45402;SDS011;47427;51.976;5.326;2022-12-07T08:01:36;13.43;;;3.83;;
45402;SDS011;47427;51.976;5.326;2022-12-07T08:04:57;9.55;;;3.15;;
45402;SDS011;47427;51.976;5.326;2022-12-07T08:08:20;10.52;;;3.25;;
45402;SDS011;47427;51.976;5.326;2022-12-07T08:11:41;11.82;;;2.88;;
45402;SDS011;47427;51.976;5.326;2022-12-07T08:15:03;7.00;;;2.50;;
45402;SDS011;47427;51.976;5.326;2022-12-07T08:18:25;9.23;;;2.80;;
45402;SDS011;47427;51.976;5.326;2022-12-07T08:21:47;10.15;;;2.80;;
45402;SDS011;47427;51.976;5.326;2022-12-07T08:25:09;7.63;;;2.58;;
45402;SDS011;47427;51.976;5.326;2022-12-07T08:28:30;9.90;;;2.75;;
45402;SDS011;47427;51.976;5.326;2022-12-07T08:31:53;12.15;;;2.88;;
45402;SDS011;47427;51.976;5.326;2022-12-07T08:35:15;8.43;;;2.90;;
45402;SDS011;47427;51.976;5.326;2022-12-07T08:38:37;8.20;;;2.65;;
45402;SDS011;47427;51.976;5.326;2022-12-07T08:42:00;7.35;;;2.42;;
45402;SDS011;47427;51.976;5.326;2022-12-07T08:45:22;9.68;;;2.90;;
45402;SDS011;47427;51.976;5.326;2022-12-07T08:48:51;11.98;;;2.92;;
45402;SDS011;47427;51.976;5.326;2022-12-07T08:52:31;6.97;;;1.95;;
45402;SDS011;47427;51.976;5.326;2022-12-07T08:56:19;9.55;;;2.00;;
45402;SDS011;47427;51.976;5.326;2022-12-07T08:59:41;10.02;;;3.38;;
45402;SDS011;47427;51.976;5.326;2022-12-07T09:03:02;6.22;;;2.13;;
45402;SDS011;47427;51.976;5.326;2022-12-07T09:06:24;9.60;;;2.50;;
45402;SDS011;47427;51.976;5.326;2022-12-07T09:09:46;9.55;;;2.35;;
45402;SDS011;47427;51.976;5.326;2022-12-07T09:13:07;14.70;;;3.00;;
45402;SDS011;47427;51.976;5.326;2022-12-07T09:16:29;8.70;;;3.05;;
45402;SDS011;47427;51.976;5.326;2022-12-07T09:19:50;10.57;;;2.60;;
45402;SDS011;47427;51.976;5.326;2022-12-07T09:23:12;6.53;;;2.05;;
45402;SDS011;47427;51.976;5.326;2022-12-07T09:26:34;14.10;;;3.97;;
45402;SDS011;47427;51.976;5.326;2022-12-07T09:29:56;5.80;;;2.10;;
45402;SDS011;47427;51.976;5.326;2022-12-07T09:33:17;9.05;;;3.03;;
45402;SDS011;47427;51.976;5.326;2022-12-07T09:36:39;8.43;;;2.25;;
45402;SDS011;47427;51.976;5.326;2022-12-07T09:40:01;6.45;;;2.60;;
45402;SDS011;47427;51.976;5.326;2022-12-07T09:43:25;9.00;;;2.28;;
45402;SDS011;47427;51.976;5.326;2022-12-07T09:46:47;7.50;;;2.20;;
45402;SDS011;47427;51.976;5.326;2022-12-07T09:50:17;14.40;;;2.17;;
45402;SDS011;47427;51.976;5.326;2022-12-07T09:53:43;5.63;;;2.17;;
45402;SDS011;47427;51.976;5.326;2022-12-07T09:57:07;12.07;;;3.63;;
45402;SDS011;47427;51.976;5.326;2022-12-07T10:00:31;12.27;;;3.50;;
45402;SDS011;47427;51.976;5.326;2022-12-07T10:03:54;10.75;;;2.80;;
45402;SDS011;47427;51.976;5.326;2022-12-07T10:07:37;9.50;;;2.40;;
45402;SDS011;47427;51.976;5.326;2022-12-07T10:11:02;6.25;;;3.10;;
45402;SDS011;47427;51.976;5.326;2022-12-07T10:14:24;5.85;;;2.42;;
45402;SDS011;47427;51.976;5.326;2022-12-07T10:17:51;6.55;;;2.45;;
45402;SDS011;47427;51.976;5.326;2022-12-07T10:21:17;9.52;;;3.50;;
45402;SDS011;47427;51.976;5.326;2022-12-07T10:24:46;8.75;;;3.85;;
45402;SDS011;47427;51.976;5.326;2022-12-07T10:31:29;10.55;;;4.55;;
45402;SDS011;47427;51.976;5.326;2022-12-07T10:35:36;7.72;;;4.07;;
45402;SDS011;47427;51.976;5.326;2022-12-07T10:39:11;13.63;;;4.40;;
45402;SDS011;47427;51.976;5.326;2022-12-07T10:42:35;9.80;;;3.40;;
45402;SDS011;47427;51.976;5.326;2022-12-07T10:46:20;9.10;;;3.05;;
45402;SDS011;47427;51.976;5.326;2022-12-07T10:57:37;7.23;;;3.40;;
45402;SDS011;47427;51.976;5.326;2022-12-07T11:09:03;6.53;;;2.75;;
45402;SDS011;47427;51.976;5.326;2022-12-07T11:16:57;9.32;;;2.25;;
45402;SDS011;47427;51.976;5.326;2022-12-07T11:20:51;8.23;;;2.50;;
45402;SDS011;47427;51.976;5.326;2022-12-07T11:28:26;14.20;;;3.65;;
45402;SDS011;47427;51.976;5.326;2022-12-07T11:40:12;10.65;;;2.72;;
45402;SDS011;47427;51.976;5.326;2022-12-07T11:44:00;11.30;;;2.13;;
45402;SDS011;47427;51.976;5.326;2022-12-07T11:47:54;5.75;;;1.45;;
45402;SDS011;47427;51.976;5.326;2022-12-07T11:51:43;7.32;;;1.80;;
45402;SDS011;47427;51.976;5.326;2022-12-07T11:55:15;5.90;;;1.58;;
45402;SDS011;47427;51.976;5.326;2022-12-07T11:59:05;7.70;;;1.98;;
45402;SDS011;47427;51.976;5.326;2022-12-07T12:03:01;8.20;;;1.80;;
45402;SDS011;47427;51.976;5.326;2022-12-07T12:06:37;6.68;;;2.00;;
45402;SDS011;47427;51.976;5.326;2022-12-07T12:10:05;5.20;;;1.70;;
45402;SDS011;47427;51.976;5.326;2022-12-07T12:13:49;5.90;;;2.22;;
45402;SDS011;47427;51.976;5.326;2022-12-07T12:18:05;7.53;;;2.28;;
45402;SDS011;47427;51.976;5.326;2022-12-07T12:21:56;8.50;;;2.53;;
45402;SDS011;47427;51.976;5.326;2022-12-07T12:25:49;12.60;;;3.10;;
45402;SDS011;47427;51.976;5.326;2022-12-07T12:29:23;9.65;;;2.80;;
45402;SDS011;47427;51.976;5.326;2022-12-07T12:33:00;5.00;;;2.08;;
45402;SDS011;47427;51.976;5.326;2022-12-07T12:36:45;6.45;;;2.35;;
45402;SDS011;47427;51.976;5.326;2022-12-07T12:43:42;5.15;;;2.50;;
45402;SDS011;47427;51.976;5.326;2022-12-07T12:58:42;9.50;;;2.45;;
45402;SDS011;47427;51.976;5.326;2022-12-07T13:09:44;5.85;;;2.20;;
45402;SDS011;47427;51.976;5.326;2022-12-07T13:16:38;4.85;;;1.90;;
45402;SDS011;47427;51.976;5.326;2022-12-07T13:20:02;7.40;;;2.30;;
45402;SDS011;47427;51.976;5.326;2022-12-07T13:23:29;6.43;;;1.83;;
45402;SDS011;47427;51.976;5.326;2022-12-07T13:26:57;10.38;;;2.35;;
45402;SDS011;47427;51.976;5.326;2022-12-07T13:30:20;9.43;;;2.17;;
45402;SDS011;47427;51.976;5.326;2022-12-07T13:33:44;11.30;;;2.35;;
45402;SDS011;47427;51.976;5.326;2022-12-07T13:37:12;6.82;;;2.78;;
45402;SDS011;47427;51.976;5.326;2022-12-07T13:41:00;6.40;;;2.50;;
45402;SDS011;47427;51.976;5.326;2022-12-07T13:44:39;6.10;;;2.20;;
45402;SDS011;47427;51.976;5.326;2022-12-07T13:48:03;8.25;;;2.45;;
45402;SDS011;47427;51.976;5.326;2022-12-07T13:51:26;5.97;;;2.88;;
45402;SDS011;47427;51.976;5.326;2022-12-07T13:54:58;6.72;;;2.65;;
45402;SDS011;47427;51.976;5.326;2022-12-07T13:58:27;6.13;;;2.10;;
45402;SDS011;47427;51.976;5.326;2022-12-07T14:01:52;6.95;;;2.17;;
45402;SDS011;47427;51.976;5.326;2022-12-07T14:05:22;4.78;;;1.98;;
45402;SDS011;47427;51.976;5.326;2022-12-07T14:08:47;5.55;;;1.88;;
45402;SDS011;47427;51.976;5.326;2022-12-07T14:12:08;6.95;;;2.17;;
45402;SDS011;47427;51.976;5.326;2022-12-07T14:15:33;5.72;;;2.15;;
45402;SDS011;47427;51.976;5.326;2022-12-07T14:18:56;3.60;;;1.90;;
45402;SDS011;47427;51.976;5.326;2022-12-07T14:22:33;6.65;;;1.05;;
45402;SDS011;47427;51.976;5.326;2022-12-07T14:26:13;6.13;;;1.50;;
45402;SDS011;47427;51.976;5.326;2022-12-07T14:29:39;2.05;;;1.15;;
45402;SDS011;47427;51.976;5.326;2022-12-07T14:33:04;5.95;;;1.83;;
45402;SDS011;47427;51.976;5.326;2022-12-07T14:36:26;3.00;;;1.37;;
45402;SDS011;47427;51.976;5.326;2022-12-07T14:39:47;3.50;;;1.08;;
45402;SDS011;47427;51.976;5.326;2022-12-07T14:43:10;2.97;;;1.00;;
45402;SDS011;47427;51.976;5.326;2022-12-07T14:46:35;1.50;;;0.95;;
45402;SDS011;47427;51.976;5.326;2022-12-07T14:49:56;4.90;;;1.23;;
45402;SDS011;47427;51.976;5.326;2022-12-07T14:53:18;2.25;;;0.93;;
45402;SDS011;47427;51.976;5.326;2022-12-07T14:56:48;3.00;;;1.20;;
45402;SDS011;47427;51.976;5.326;2022-12-07T15:00:15;2.72;;;1.00;;
45402;SDS011;47427;51.976;5.326;2022-12-07T15:03:38;1.42;;;0.80;;
45402;SDS011;47427;51.976;5.326;2022-12-07T15:07:01;3.65;;;1.70;;
45402;SDS011;47427;51.976;5.326;2022-12-07T15:10:26;4.65;;;1.98;;
45402;SDS011;47427;51.976;5.326;2022-12-07T15:14:17;4.93;;;1.40;;
45402;SDS011;47427;51.976;5.326;2022-12-07T15:17:39;5.97;;;2.05;;
45402;SDS011;47427;51.976;5.326;2022-12-07T15:21:01;4.70;;;2.40;;
45402;SDS011;47427;51.976;5.326;2022-12-07T15:24:23;4.63;;;2.67;;
45402;SDS011;47427;51.976;5.326;2022-12-07T15:27:44;7.35;;;3.00;;
45402;SDS011;47427;51.976;5.326;2022-12-07T15:31:16;8.15;;;2.22;;
45402;SDS011;47427;51.976;5.326;2022-12-07T15:34:38;4.72;;;2.22;;
45402;SDS011;47427;51.976;5.326;2022-12-07T15:38:00;5.15;;;2.20;;
45402;SDS011;47427;51.976;5.326;2022-12-07T15:41:22;7.75;;;2.42;;
45402;SDS011;47427;51.976;5.326;2022-12-07T15:44:44;8.82;;;3.08;;
45402;SDS011;47427;51.976;5.326;2022-12-07T15:48:24;8.32;;;2.75;;
45402;SDS011;47427;51.976;5.326;2022-12-07T15:51:46;7.63;;;3.20;;
45402;SDS011;47427;51.976;5.326;2022-12-07T15:55:11;9.48;;;2.85;;
45402;SDS011;47427;51.976;5.326;2022-12-07T15:58:33;9.18;;;2.92;;
45402;SDS011;47427;51.976;5.326;2022-12-07T16:01:55;6.40;;;3.28;;
45402;SDS011;47427;51.976;5.326;2022-12-07T16:05:17;14.60;;;2.92;;
45402;SDS011;47427;51.976;5.326;2022-12-07T16:08:42;8.77;;;2.58;;
45402;SDS011;47427;51.976;5.326;2022-12-07T16:12:05;13.77;;;4.53;;
45402;SDS011;47427;51.976;5.326;2022-12-07T16:15:27;13.80;;;4.47;;
45402;SDS011;47427;51.976;5.326;2022-12-07T16:18:49;6.97;;;2.60;;
45402;SDS011;47427;51.976;5.326;2022-12-07T16:22:11;9.18;;;2.92;;
45402;SDS011;47427;51.976;5.326;2022-12-07T16:25:33;4.38;;;1.40;;
45402;SDS011;47427;51.976;5.326;2022-12-07T16:28:54;6.53;;;2.28;;
45402;SDS011;47427;51.976;5.326;2022-12-07T16:32:16;2.97;;;1.60;;
45402;SDS011;47427;51.976;5.326;2022-12-07T16:35:38;4.72;;;1.58;;
45402;SDS011;47427;51.976;5.326;2022-12-07T16:39:04;5.40;;;1.35;;
45402;SDS011;47427;51.976;5.326;2022-12-07T16:42:27;3.63;;;1.95;;
45402;SDS011;47427;51.976;5.326;2022-12-07T16:45:55;6.05;;;2.17;;
45402;SDS011;47427;51.976;5.326;2022-12-07T16:49:17;6.13;;;2.35;;
45402;SDS011;47427;51.976;5.326;2022-12-07T16:52:39;7.60;;;2.60;;
45402;SDS011;47427;51.976;5.326;2022-12-07T16:56:01;8.80;;;3.03;;
45402;SDS011;47427;51.976;5.326;2022-12-07T16:59:23;5.18;;;3.35;;
45402;SDS011;47427;51.976;5.326;2022-12-07T17:02:45;9.05;;;4.10;;
45402;SDS011;47427;51.976;5.326;2022-12-07T17:06:16;9.88;;;5.70;;
45402;SDS011;47427;51.976;5.326;2022-12-07T17:09:46;8.63;;;4.35;;
45402;SDS011;47427;51.976;5.326;2022-12-07T17:13:08;5.72;;;3.22;;
45402;SDS011;47427;51.976;5.326;2022-12-07T17:16:48;10.07;;;3.60;;
45402;SDS011;47427;51.976;5.326;2022-12-07T17:20:11;7.78;;;4.43;;
45402;SDS011;47427;51.976;5.326;2022-12-07T17:23:33;10.73;;;5.45;;
45402;SDS011;47427;51.976;5.326;2022-12-07T17:26:56;15.48;;;11.13;;
45402;SDS011;47427;51.976;5.326;2022-12-07T17:30:17;11.85;;;5.57;;
45402;SDS011;47427;51.976;5.326;2022-12-07T17:33:39;6.65;;;3.30;;
45402;SDS011;47427;51.976;5.326;2022-12-07T17:37:01;9.77;;;4.30;;
45402;SDS011;47427;51.976;5.326;2022-12-07T17:40:23;11.93;;;5.63;;
45402;SDS011;47427;51.976;5.326;2022-12-07T17:43:44;10.20;;;5.85;;
45402;SDS011;47427;51.976;5.326;2022-12-07T17:47:06;8.95;;;5.38;;
45402;SDS011;47427;51.976;5.326;2022-12-07T17:50:30;7.30;;;3.60;;
45402;SDS011;47427;51.976;5.326;2022-12-07T17:54:11;4.18;;;3.17;;
45402;SDS011;47427;51.976;5.326;2022-12-07T17:57:32;4.80;;;3.03;;
45402;SDS011;47427;51.976;5.326;2022-12-07T18:00:54;2.90;;;2.08;;
45402;SDS011;47427;51.976;5.326;2022-12-07T18:04:16;8.30;;;3.42;;
45402;SDS011;47427;51.976;5.326;2022-12-07T18:07:37;8.32;;;3.53;;
45402;SDS011;47427;51.976;5.326;2022-12-07T18:11:01;6.85;;;3.08;;
45402;SDS011;47427;51.976;5.326;2022-12-07T18:14:22;7.05;;;2.58;;
45402;SDS011;47427;51.976;5.326;2022-12-07T18:17:44;5.10;;;2.97;;
45402;SDS011;47427;51.976;5.326;2022-12-07T18:21:06;7.03;;;3.78;;
45402;SDS011;47427;51.976;5.326;2022-12-07T18:24:36;8.70;;;3.45;;
45402;SDS011;47427;51.976;5.326;2022-12-07T18:27:58;9.13;;;3.30;;
45402;SDS011;47427;51.976;5.326;2022-12-07T18:31:20;4.55;;;2.90;;
45402;SDS011;47427;51.976;5.326;2022-12-07T18:34:41;4.55;;;2.63;;
45402;SDS011;47427;51.976;5.326;2022-12-07T18:38:03;11.27;;;3.78;;
45402;SDS011;47427;51.976;5.326;2022-12-07T18:41:24;10.77;;;3.05;;
45402;SDS011;47427;51.976;5.326;2022-12-07T18:44:46;13.50;;;3.65;;
45402;SDS011;47427;51.976;5.326;2022-12-07T18:48:08;7.57;;;3.65;;
45402;SDS011;47427;51.976;5.326;2022-12-07T18:51:30;9.77;;;3.28;;
45402;SDS011;47427;51.976;5.326;2022-12-07T18:54:51;8.90;;;4.40;;
45402;SDS011;47427;51.976;5.326;2022-12-07T18:58:13;5.30;;;4.05;;
45402;SDS011;47427;51.976;5.326;2022-12-07T19:01:56;10.82;;;5.72;;
45402;SDS011;47427;51.976;5.326;2022-12-07T19:05:17;11.40;;;6.53;;
45402;SDS011;47427;51.976;5.326;2022-12-07T19:09:05;13.75;;;7.70;;
45402;SDS011;47427;51.976;5.326;2022-12-07T19:12:27;15.00;;;7.78;;
45402;SDS011;47427;51.976;5.326;2022-12-07T19:15:48;17.95;;;9.27;;
45402;SDS011;47427;51.976;5.326;2022-12-07T19:19:10;21.35;;;10.88;;
45402;SDS011;47427;51.976;5.326;2022-12-07T19:22:32;31.50;;;15.45;;
45402;SDS011;47427;51.976;5.326;2022-12-07T19:25:53;18.60;;;9.88;;
45402;SDS011;47427;51.976;5.326;2022-12-07T19:29:15;19.52;;;9.65;;
45402;SDS011;47427;51.976;5.326;2022-12-07T19:32:36;14.77;;;7.97;;
45402;SDS011;47427;51.976;5.326;2022-12-07T19:35:58;12.82;;;5.75;;
45402;SDS011;47427;51.976;5.326;2022-12-07T19:39:20;13.10;;;5.30;;
45402;SDS011;47427;51.976;5.326;2022-12-07T19:42:41;14.80;;;5.53;;
45402;SDS011;47427;51.976;5.326;2022-12-07T19:46:04;11.93;;;5.35;;
45402;SDS011;47427;51.976;5.326;2022-12-07T19:49:27;8.55;;;4.90;;
45402;SDS011;47427;51.976;5.326;2022-12-07T19:52:50;10.88;;;5.53;;
45402;SDS011;47427;51.976;5.326;2022-12-07T19:56:18;9.60;;;4.60;;
45402;SDS011;47427;51.976;5.326;2022-12-07T19:59:41;11.77;;;4.20;;
45402;SDS011;47427;51.976;5.326;2022-12-07T20:03:03;8.40;;;4.10;;
45402;SDS011;47427;51.976;5.326;2022-12-07T20:06:25;12.70;;;5.57;;
45402;SDS011;47427;51.976;5.326;2022-12-07T20:09:46;10.63;;;5.60;;
45402;SDS011;47427;51.976;5.326;2022-12-07T20:13:08;15.38;;;8.63;;
45402;SDS011;47427;51.976;5.326;2022-12-07T20:16:48;14.32;;;7.05;;
45402;SDS011;47427;51.976;5.326;2022-12-07T20:20:10;21.60;;;9.57;;
45402;SDS011;47427;51.976;5.326;2022-12-07T20:23:31;22.30;;;10.40;;
45402;SDS011;47427;51.976;5.326;2022-12-07T20:27:13;18.08;;;9.27;;
45402;SDS011;47427;51.976;5.326;2022-12-07T20:30:37;15.85;;;6.85;;
45402;SDS011;47427;51.976;5.326;2022-12-07T20:34:05;10.55;;;5.30;;
45402;SDS011;47427;51.976;5.326;2022-12-07T20:37:28;20.08;;;7.18;;
45402;SDS011;47427;51.976;5.326;2022-12-07T20:40:49;23.95;;;9.98;;
45402;SDS011;47427;51.976;5.326;2022-12-07T20:44:14;15.40;;;9.38;;
45402;SDS011;47427;51.976;5.326;2022-12-07T20:47:37;18.52;;;9.98;;
45402;SDS011;47427;51.976;5.326;2022-12-07T20:51:05;17.27;;;8.85;;
45402;SDS011;47427;51.976;5.326;2022-12-07T20:54:28;19.65;;;7.97;;
45402;SDS011;47427;51.976;5.326;2022-12-07T20:57:49;16.40;;;8.57;;
45402;SDS011;47427;51.976;5.326;2022-12-07T21:01:11;19.30;;;8.45;;
45402;SDS011;47427;51.976;5.326;2022-12-07T21:04:33;14.02;;;6.53;;
45402;SDS011;47427;51.976;5.326;2022-12-07T21:07:54;12.48;;;7.20;;
45402;SDS011;47427;51.976;5.326;2022-12-07T21:11:16;19.13;;;7.15;;
45402;SDS011;47427;51.976;5.326;2022-12-07T21:14:39;13.00;;;5.75;;
45402;SDS011;47427;51.976;5.326;2022-12-07T21:18:01;11.45;;;6.00;;
45402;SDS011;47427;51.976;5.326;2022-12-07T21:21:23;13.68;;;6.15;;
45402;SDS011;47427;51.976;5.326;2022-12-07T21:24:45;13.48;;;6.65;;
45402;SDS011;47427;51.976;5.326;2022-12-07T21:28:06;10.00;;;6.15;;
45402;SDS011;47427;51.976;5.326;2022-12-07T21:31:28;10.65;;;6.47;;
45402;SDS011;47427;51.976;5.326;2022-12-07T21:34:50;14.98;;;7.15;;
45402;SDS011;47427;51.976;5.326;2022-12-07T21:38:11;14.82;;;7.50;;
45402;SDS011;47427;51.976;5.326;2022-12-07T21:41:33;13.77;;;8.60;;
45402;SDS011;47427;51.976;5.326;2022-12-07T21:44:55;14.70;;;8.27;;
45402;SDS011;47427;51.976;5.326;2022-12-07T21:48:18;15.38;;;7.30;;
45402;SDS011;47427;51.976;5.326;2022-12-07T21:51:41;17.83;;;9.13;;
45402;SDS011;47427;51.976;5.326;2022-12-07T21:55:03;14.82;;;8.43;;
45402;SDS011;47427;51.976;5.326;2022-12-07T21:58:25;10.80;;;7.68;;
45402;SDS011;47427;51.976;5.326;2022-12-07T22:01:47;9.50;;;6.13;;
45402;SDS011;47427;51.976;5.326;2022-12-07T22:05:09;16.67;;;8.57;;